createdAt,value
2017-04-02T00:00:41.686Z,13.50
2017-04-02T00:01:39.337Z,13.50
2017-04-02T00:02:37.887Z,13.50
2017-04-02T00:03:35.571Z,13.60
2017-04-02T00:04:33.210Z,13.60
2017-04-02T00:05:31.482Z,13.50
2017-04-02T00:06:29.215Z,13.50
2017-04-02T00:07:26.889Z,13.60
2017-04-02T00:08:24.623Z,13.60
2017-04-02T00:09:22.274Z,13.50
2017-04-02T00:10:20.958Z,13.50
2017-04-02T00:11:19.224Z,13.50
2017-04-02T00:12:16.995Z,13.60
2017-04-02T00:13:14.619Z,13.60
2017-04-02T00:14:12.271Z,13.50
2017-04-02T00:15:10.523Z,13.60
2017-04-02T00:16:08.234Z,13.60
2017-04-02T00:17:06.231Z,13.50
2017-04-02T00:18:03.926Z,13.60
2017-04-02T00:19:01.532Z,13.60
2017-04-02T00:19:59.188Z,13.60
2017-04-02T00:20:56.891Z,13.60
2017-04-02T00:21:54.549Z,13.60
2017-04-02T00:22:52.673Z,13.60
2017-04-02T00:23:50.347Z,13.60
2017-04-02T00:24:47.961Z,13.60
2017-04-02T00:25:45.735Z,13.60
2017-04-02T00:26:43.434Z,13.60
2017-04-02T00:27:41.044Z,13.60
2017-04-02T00:28:38.740Z,13.50
2017-04-02T00:29:36.366Z,13.50
2017-04-02T00:30:34.515Z,13.50
2017-04-02T00:31:33.203Z,13.40
2017-04-02T00:32:30.818Z,13.40
2017-04-02T00:33:28.453Z,13.40
2017-04-02T00:34:26.071Z,13.40
2017-04-02T00:35:23.906Z,13.40
2017-04-02T00:36:21.924Z,13.50
2017-04-02T00:37:19.619Z,13.60
2017-04-02T00:38:17.275Z,13.60
2017-04-02T00:39:15.003Z,13.60
2017-04-02T00:40:14.079Z,13.70
2017-04-02T00:41:11.726Z,13.70
2017-04-02T00:42:09.342Z,13.70
2017-04-02T00:43:06.983Z,13.70
2017-04-02T00:44:04.635Z,13.70
2017-04-02T00:45:03.279Z,13.80
2017-04-02T00:46:01.302Z,13.80
2017-04-02T00:46:58.921Z,13.80
2017-04-02T00:47:56.567Z,13.90
2017-04-02T00:48:54.233Z,13.90
2017-04-02T00:49:51.861Z,13.80
2017-04-02T00:50:50.226Z,13.80
2017-04-02T00:51:48.779Z,13.70
2017-04-02T00:52:46.422Z,13.70
2017-04-02T00:53:44.096Z,13.70
2017-04-02T00:54:41.731Z,13.70
2017-04-02T00:55:39.413Z,13.70
2017-04-02T00:56:37.058Z,13.70
2017-04-02T00:57:36.358Z,13.70
2017-04-02T00:58:34.883Z,13.80
2017-04-02T00:59:32.531Z,13.80
2017-04-02T01:00:30.246Z,13.70
2017-04-02T01:01:27.919Z,13.70
2017-04-02T01:02:25.579Z,13.60
2017-04-02T01:03:23.327Z,13.60
2017-04-02T01:04:20.983Z,13.60
2017-04-02T01:05:19.166Z,13.60
2017-04-02T01:06:16.855Z,13.50
2017-04-02T01:07:14.553Z,13.50
2017-04-02T01:08:12.255Z,13.50
2017-04-02T01:09:09.952Z,13.40
2017-04-02T01:10:07.750Z,13.30
2017-04-02T01:11:05.442Z,13.30
2017-04-02T01:12:03.171Z,13.40
2017-04-02T01:13:00.866Z,13.40
2017-04-02T01:13:58.459Z,13.50
2017-04-02T01:14:56.106Z,13.50
2017-04-02T01:15:54.272Z,13.60
2017-04-02T01:16:51.991Z,13.60
2017-04-02T01:17:50.550Z,13.70
2017-04-02T01:18:48.191Z,13.60
2017-04-02T01:19:45.862Z,13.60
2017-04-02T01:20:43.874Z,13.60
2017-04-02T01:21:41.530Z,13.60
2017-04-02T01:22:39.203Z,13.60
2017-04-02T01:23:36.993Z,13.60
2017-04-02T01:24:34.653Z,13.50
2017-04-02T01:25:32.366Z,13.50
2017-04-02T01:26:30.778Z,13.60
2017-04-02T01:27:28.723Z,13.60
2017-04-02T01:28:26.409Z,13.60
2017-04-02T01:29:24.066Z,13.60
2017-04-02T01:30:21.834Z,13.60
2017-04-02T01:31:20.099Z,13.70
2017-04-02T01:32:17.740Z,13.80
2017-04-02T01:33:15.451Z,13.80
2017-04-02T01:34:13.132Z,13.80
2017-04-02T01:35:11.351Z,13.80
2017-04-02T01:36:09.648Z,13.80
2017-04-02T01:37:07.294Z,13.80
2017-04-02T01:38:05.053Z,13.80
2017-04-02T01:39:02.841Z,13.70
2017-04-02T01:40:00.510Z,13.70
2017-04-02T01:40:58.556Z,13.70
2017-04-02T01:41:57.144Z,13.80
2017-04-02T01:42:54.827Z,13.80
2017-04-02T01:43:52.454Z,13.80
2017-04-02T01:44:50.095Z,13.80
2017-04-02T01:45:47.754Z,13.80
2017-04-02T01:46:45.873Z,13.60
2017-04-02T01:47:43.603Z,13.60
2017-04-02T01:48:41.246Z,13.60
2017-04-02T01:49:38.892Z,13.50
2017-04-02T01:50:36.607Z,13.50
2017-04-02T01:51:34.260Z,13.60
2017-04-02T01:52:32.187Z,13.60
2017-04-02T01:53:29.890Z,13.60
2017-04-02T01:54:27.555Z,13.60
2017-04-02T01:55:25.255Z,13.60
2017-04-02T01:56:22.903Z,13.60
2017-04-02T01:57:20.585Z,13.60
2017-04-02T01:58:18.234Z,13.60
2017-04-02T01:59:15.866Z,13.60
2017-04-02T02:00:13.642Z,13.60
2017-04-02T02:01:11.292Z,13.50
2017-04-02T02:02:08.958Z,13.50
2017-04-02T02:03:06.682Z,13.40
2017-04-02T02:04:04.355Z,13.40
2017-04-02T02:05:02.054Z,13.40
2017-04-02T02:05:59.701Z,13.50
2017-04-02T02:06:57.499Z,13.40
2017-04-02T02:07:55.445Z,13.40
2017-04-02T02:08:53.063Z,13.40
2017-04-02T02:09:50.732Z,13.40
2017-04-02T02:10:48.735Z,13.40
2017-04-02T02:11:46.411Z,13.40
2017-04-02T02:12:44.066Z,13.50
2017-04-02T02:13:41.706Z,13.40
2017-04-02T02:14:39.294Z,13.50
2017-04-02T02:15:36.991Z,13.50
2017-04-02T02:16:35.083Z,13.50
2017-04-02T02:17:32.763Z,13.40
2017-04-02T02:18:30.422Z,13.40
2017-04-02T02:19:28.080Z,13.30
2017-04-02T02:20:25.882Z,13.30
2017-04-02T02:21:23.580Z,13.20
2017-04-02T02:22:21.250Z,13.20
2017-04-02T02:23:18.886Z,13.10
2017-04-02T02:24:16.510Z,13.10
2017-04-02T02:25:14.587Z,13.10
2017-04-02T02:26:12.194Z,13.10
2017-04-02T02:27:09.854Z,13.00
2017-04-02T02:28:07.511Z,13.10
2017-04-02T02:29:05.130Z,13.10
2017-04-02T02:30:02.903Z,13.10
2017-04-02T02:31:01.366Z,13.10
2017-04-02T02:31:59.044Z,13.10
2017-04-02T02:32:57.491Z,13.10
2017-04-02T02:33:55.101Z,13.20
2017-04-02T02:34:52.794Z,13.20
2017-04-02T02:35:50.507Z,13.20
2017-04-02T02:36:48.167Z,13.10
2017-04-02T02:37:45.782Z,13.10
2017-04-02T02:38:43.415Z,13.00
2017-04-02T02:39:41.079Z,12.90
2017-04-02T02:40:39.030Z,12.90
2017-04-02T02:43:11.932Z,12.90
2017-04-02T02:44:13.503Z,12.90
2017-04-02T02:45:11.238Z,12.90
2017-04-02T02:46:08.883Z,12.80
2017-04-02T02:47:06.511Z,12.80
2017-04-02T02:48:04.190Z,12.90
2017-04-02T02:49:01.819Z,12.80
2017-04-02T02:49:59.453Z,12.80
2017-04-02T02:50:57.562Z,12.80
2017-04-02T02:51:55.231Z,12.80
2017-04-02T02:52:52.886Z,12.90
2017-04-02T02:53:50.534Z,12.80
2017-04-02T02:54:48.161Z,12.90
2017-04-02T02:55:45.828Z,12.90
2017-04-02T02:58:26.847Z,12.80
2017-04-02T02:59:24.486Z,12.70
2017-04-02T03:00:22.287Z,12.70
2017-04-02T03:01:19.980Z,12.60
2017-04-02T03:02:17.658Z,12.70
2017-04-02T03:03:18.113Z,12.70
2017-04-02T03:04:15.793Z,12.70
2017-04-02T03:05:13.756Z,12.60
2017-04-02T03:06:11.426Z,12.60
2017-04-02T03:07:09.038Z,12.60
2017-04-02T03:08:06.642Z,12.70
2017-04-02T03:09:04.377Z,12.70
2017-04-02T03:10:02.039Z,12.70
2017-04-02T03:11:00.158Z,12.70
2017-04-02T03:11:57.790Z,12.70
2017-04-02T03:12:55.450Z,12.80
2017-04-02T03:13:53.745Z,12.80
2017-04-02T03:14:51.358Z,12.90
2017-04-02T03:15:49.051Z,12.90
2017-04-02T03:16:47.090Z,12.90
2017-04-02T03:17:44.719Z,13.00
2017-04-02T03:18:42.377Z,13.00
2017-04-02T03:19:39.980Z,13.00
2017-04-02T03:20:38.106Z,13.00
2017-04-02T03:21:35.728Z,13.00
2017-04-02T03:22:33.386Z,13.00
2017-04-02T03:23:30.990Z,13.00
2017-04-02T03:24:28.610Z,13.00
2017-04-02T03:25:26.335Z,13.00
2017-04-02T03:26:24.019Z,13.00
2017-04-02T03:27:21.634Z,12.90
2017-04-02T03:28:19.250Z,12.90
2017-04-02T03:29:16.945Z,12.90
2017-04-02T03:30:14.666Z,12.90
2017-04-02T03:31:12.360Z,12.80
2017-04-02T03:32:09.987Z,12.80
2017-04-02T03:33:07.638Z,12.70
2017-04-02T03:34:05.267Z,12.80
2017-04-02T03:35:03.382Z,12.70
2017-04-02T03:36:01.007Z,12.70
2017-04-02T03:36:59.251Z,12.70
2017-04-02T03:37:56.904Z,12.70
2017-04-02T03:38:54.547Z,12.70
2017-04-02T03:39:52.170Z,12.70
2017-04-02T03:40:57.112Z,12.70
2017-04-02T03:41:55.355Z,12.70
2017-04-02T03:42:52.998Z,12.70
2017-04-02T03:43:50.592Z,12.70
2017-04-02T03:44:48.207Z,12.80
2017-04-02T03:45:46.254Z,12.70
2017-04-02T03:46:43.851Z,12.70
2017-04-02T03:47:42.266Z,12.70
2017-04-02T03:48:39.886Z,12.70
2017-04-02T03:49:37.486Z,12.80
2017-04-02T03:50:35.219Z,12.70
2017-04-02T03:51:32.843Z,12.70
2017-04-02T03:52:30.466Z,12.70
2017-04-02T03:53:28.599Z,12.80
2017-04-02T03:54:26.255Z,12.90
2017-04-02T03:55:25.635Z,12.90
2017-04-02T03:56:23.250Z,12.90
2017-04-02T03:57:20.879Z,12.90
2017-04-02T03:58:18.512Z,12.80
2017-04-02T03:59:16.170Z,12.80
2017-04-02T04:00:13.942Z,12.70
2017-04-02T04:01:12.194Z,12.70
2017-04-02T04:02:09.823Z,12.70
2017-04-02T04:03:07.490Z,12.70
2017-04-02T04:04:05.182Z,12.70
2017-04-02T04:05:02.894Z,12.80
2017-04-02T04:06:00.523Z,12.80
2017-04-02T04:06:58.142Z,12.70
2017-04-02T04:07:55.758Z,12.50
2017-04-02T04:08:53.359Z,12.50
2017-04-02T04:09:50.966Z,12.50
2017-04-02T04:10:48.923Z,12.50
2017-04-02T04:11:46.539Z,12.50
2017-04-02T04:12:44.171Z,12.50
2017-04-02T04:13:41.819Z,12.50
2017-04-02T04:14:39.430Z,12.50
2017-04-02T04:15:37.101Z,12.60
2017-04-02T04:16:38.467Z,12.60
2017-04-02T04:17:36.154Z,12.60
2017-04-02T04:18:33.770Z,12.60
2017-04-02T04:19:31.427Z,12.50
2017-04-02T04:20:29.135Z,12.50
2017-04-02T04:21:27.343Z,12.50
2017-04-02T04:22:25.077Z,12.50
2017-04-02T04:23:22.715Z,12.40
2017-04-02T04:24:20.361Z,12.40
2017-04-02T04:25:18.482Z,12.30
2017-04-02T04:26:16.101Z,12.30
2017-04-02T04:27:13.755Z,12.20
2017-04-02T04:28:11.368Z,12.20
2017-04-02T04:29:09.010Z,12.20
2017-04-02T04:30:06.702Z,12.30
2017-04-02T04:31:04.403Z,12.20
2017-04-02T04:32:02.071Z,12.20
2017-04-02T04:32:59.686Z,12.20
2017-04-02T04:33:57.307Z,12.20
2017-04-02T04:34:54.929Z,12.20
2017-04-02T04:35:52.605Z,12.20
2017-04-02T04:36:50.251Z,12.20
2017-04-02T04:37:48.527Z,12.20
2017-04-02T04:38:46.869Z,12.20
2017-04-02T04:39:44.549Z,12.20
2017-04-02T04:40:42.529Z,12.30
2017-04-02T04:41:40.137Z,12.30
2017-04-02T04:42:37.738Z,12.30
2017-04-02T04:43:36.353Z,12.20
2017-04-02T04:44:33.948Z,12.20
2017-04-02T04:45:31.642Z,12.20
2017-04-02T04:46:29.328Z,12.10
2017-04-02T04:47:26.951Z,12.10
2017-04-02T04:48:25.402Z,12.10
2017-04-02T04:49:23.075Z,12.00
2017-04-02T04:50:21.086Z,12.00
2017-04-02T04:51:18.710Z,12.00
2017-04-02T04:52:16.326Z,12.00
2017-04-02T04:53:14.010Z,12.00
2017-04-02T04:54:11.623Z,12.00
2017-04-02T04:55:09.661Z,12.00
2017-04-02T04:56:07.273Z,12.00
2017-04-02T04:57:04.939Z,12.10
2017-04-02T04:58:02.588Z,12.10
2017-04-02T04:59:00.209Z,12.10
2017-04-02T04:59:57.811Z,12.10
2017-04-02T05:00:55.765Z,12.20
2017-04-02T05:01:53.372Z,12.20
2017-04-02T05:02:50.955Z,12.20
2017-04-02T05:03:48.574Z,12.10
2017-04-02T05:04:46.152Z,12.10
2017-04-02T05:05:43.830Z,12.10
2017-04-02T05:06:41.769Z,12.20
2017-04-02T05:07:39.455Z,12.10
2017-04-02T05:08:37.067Z,12.10
2017-04-02T05:09:34.721Z,12.10
2017-04-02T05:10:32.395Z,12.10
2017-04-02T05:11:30.060Z,12.10
2017-04-02T05:12:27.674Z,12.10
2017-04-02T05:13:25.290Z,12.10
2017-04-02T05:14:22.894Z,12.10
2017-04-02T05:15:21.101Z,12.10
2017-04-02T05:16:18.723Z,12.20
2017-04-02T05:17:16.411Z,12.20
2017-04-02T05:19:04.110Z,12.20
2017-04-02T05:20:01.790Z,12.20
2017-04-02T05:20:59.440Z,12.30
2017-04-02T05:21:57.082Z,12.20
2017-04-02T05:22:54.682Z,12.20
2017-04-02T05:23:52.298Z,12.20
2017-04-02T05:24:49.954Z,12.30
2017-04-02T05:25:47.677Z,12.30
2017-04-02T05:26:45.281Z,12.40
2017-04-02T05:27:43.513Z,12.40
2017-04-02T05:28:41.106Z,12.50
2017-04-02T05:29:38.722Z,12.40
2017-04-02T05:30:36.738Z,12.50
2017-04-02T05:31:34.374Z,12.60
2017-04-02T05:32:31.970Z,12.50
2017-04-02T05:33:29.583Z,12.50
2017-04-02T05:34:27.254Z,12.60
2017-04-02T05:35:25.862Z,12.60
2017-04-02T05:36:24.243Z,12.60
2017-04-02T05:37:21.891Z,12.60
2017-04-02T05:38:19.518Z,12.70
2017-04-02T05:39:17.155Z,12.60
2017-04-02T05:40:14.882Z,12.50
2017-04-02T05:41:12.510Z,12.60
2017-04-02T05:42:10.174Z,12.60
2017-04-02T05:43:07.818Z,12.70
2017-04-02T05:44:05.467Z,12.70
2017-04-02T05:45:03.444Z,12.80
2017-04-02T05:46:01.027Z,12.80
2017-04-02T05:46:58.672Z,12.80
2017-04-02T05:47:56.313Z,12.90
2017-04-02T05:48:53.922Z,12.90
2017-04-02T05:49:51.590Z,12.90
2017-04-02T05:50:49.559Z,12.90
2017-04-02T05:51:47.223Z,12.90
2017-04-02T05:52:44.878Z,12.90
2017-04-02T05:53:42.558Z,12.90
2017-04-02T05:54:40.188Z,13.00
2017-04-02T05:55:37.896Z,13.00
2017-04-02T05:56:35.821Z,13.00
2017-04-02T05:57:33.446Z,13.00
2017-04-02T05:58:31.046Z,13.10
2017-04-02T05:59:28.666Z,13.00
2017-04-02T06:00:26.382Z,13.10
2017-04-02T06:01:25.020Z,13.00
2017-04-02T06:02:23.006Z,13.00
2017-04-02T06:03:20.641Z,13.00
2017-04-02T06:04:18.262Z,13.00
2017-04-02T06:05:16.273Z,13.00
2017-04-02T06:06:13.935Z,13.00
2017-04-02T06:07:11.607Z,13.00
2017-04-02T06:08:09.782Z,13.00
2017-04-02T06:09:07.374Z,13.00
2017-04-02T06:10:05.760Z,13.10
2017-04-02T06:11:03.378Z,13.10
2017-04-02T06:12:01.026Z,13.10
2017-04-02T06:12:58.687Z,13.10
2017-04-02T06:13:56.286Z,13.10
2017-04-02T06:14:53.886Z,13.10
2017-04-02T06:15:51.627Z,13.10
2017-04-02T06:16:49.294Z,13.10
2017-04-02T06:17:46.911Z,13.20
2017-04-02T06:18:44.559Z,13.20
2017-04-02T06:19:42.243Z,13.10
2017-04-02T06:20:40.344Z,13.20
2017-04-02T06:21:37.995Z,13.20
2017-04-02T06:22:35.626Z,13.30
2017-04-02T06:23:33.322Z,13.30
2017-04-02T06:24:30.973Z,13.30
2017-04-02T06:25:28.691Z,13.30
2017-04-02T06:26:26.358Z,13.30
2017-04-02T06:27:24.022Z,13.30
2017-04-02T06:28:21.692Z,13.40
2017-04-02T06:29:19.319Z,13.50
2017-04-02T06:30:17.466Z,13.40
2017-04-02T06:31:15.067Z,13.30
2017-04-02T06:32:12.734Z,13.30
2017-04-02T06:33:10.422Z,13.40
2017-04-02T06:34:08.114Z,13.50
2017-04-02T06:35:06.506Z,13.70
2017-04-02T06:36:04.172Z,13.80
2017-04-02T06:37:01.816Z,14.00
2017-04-02T06:37:59.421Z,14.10
2017-04-02T06:38:57.033Z,14.20
2017-04-02T06:39:54.678Z,14.30
2017-04-02T06:40:52.670Z,14.30
2017-04-02T06:41:50.324Z,14.30
2017-04-02T06:42:49.591Z,14.30
2017-04-02T06:43:47.962Z,14.40
2017-04-02T06:44:45.588Z,14.50
2017-04-02T06:45:43.750Z,14.60
2017-04-02T06:46:41.744Z,14.50
2017-04-02T06:47:39.406Z,14.60
2017-04-02T06:48:37.031Z,14.70
2017-04-02T06:49:34.666Z,14.70
2017-04-02T06:50:32.367Z,14.60
2017-04-02T06:51:30.007Z,14.70
2017-04-02T06:52:29.283Z,14.70
2017-04-02T06:53:26.895Z,14.70
2017-04-02T06:54:24.535Z,14.70
2017-04-02T06:55:22.207Z,14.70
2017-04-02T06:56:19.782Z,14.60
2017-04-02T06:57:17.427Z,14.60
2017-04-02T06:58:15.099Z,14.60
2017-04-02T06:59:12.698Z,14.60
2017-04-02T07:00:11.226Z,14.60
2017-04-02T07:01:08.870Z,14.70
2017-04-02T07:02:06.603Z,14.70
2017-04-02T07:03:04.290Z,14.70
2017-04-02T07:04:02.350Z,14.70
2017-04-02T07:05:01.448Z,14.80
2017-04-02T07:05:59.071Z,14.80
2017-04-02T07:06:56.702Z,14.70
2017-04-02T07:07:54.302Z,14.70
2017-04-02T07:08:51.907Z,14.70
2017-04-02T07:09:49.877Z,14.60
2017-04-02T07:10:47.630Z,14.60
2017-04-02T07:11:45.281Z,14.60
2017-04-02T07:12:42.930Z,14.70
2017-04-02T07:13:40.569Z,14.70
2017-04-02T07:14:38.208Z,14.70
2017-04-02T07:15:36.199Z,14.70
2017-04-02T07:16:33.835Z,14.80
2017-04-02T07:17:31.460Z,14.80
2017-04-02T07:18:30.026Z,14.70
2017-04-02T07:19:29.185Z,14.70
2017-04-02T07:20:26.883Z,14.70
2017-04-02T07:21:24.556Z,14.70
2017-04-02T07:22:22.236Z,14.70
2017-04-02T07:23:19.861Z,14.70
2017-04-02T07:24:17.520Z,14.90
2017-04-02T07:25:15.255Z,14.90
2017-04-02T07:26:12.958Z,15.00
2017-04-02T07:27:10.603Z,15.10
2017-04-02T07:28:08.215Z,15.20
2017-04-02T07:29:06.217Z,15.10
2017-04-02T07:30:04.375Z,15.00
2017-04-02T07:31:02.040Z,15.00
2017-04-02T07:31:59.662Z,15.10
2017-04-02T07:32:57.327Z,15.20
2017-04-02T07:33:54.950Z,15.10
2017-04-02T07:34:52.578Z,15.20
2017-04-02T07:35:50.695Z,15.30
2017-04-02T07:36:48.415Z,15.40
2017-04-02T07:37:46.087Z,15.30
2017-04-02T07:38:43.711Z,15.30
2017-04-02T07:39:41.338Z,15.30
2017-04-02T07:40:39.034Z,15.40
2017-04-02T07:41:43.283Z,15.50
2017-04-02T07:42:40.931Z,15.50
2017-04-02T07:43:39.521Z,15.50
2017-04-02T07:44:37.255Z,15.40
2017-04-02T07:45:34.967Z,15.50
2017-04-02T07:46:33.282Z,15.50
2017-04-02T07:47:31.039Z,15.50
2017-04-02T07:48:28.715Z,15.60
2017-04-02T07:49:26.344Z,15.70
2017-04-02T07:50:24.047Z,15.80
2017-04-02T07:51:21.747Z,15.70
2017-04-02T07:52:19.397Z,15.70
2017-04-02T07:53:18.034Z,15.80
2017-04-02T07:54:15.718Z,15.80
2017-04-02T07:55:13.371Z,15.80
2017-04-02T07:56:11.735Z,15.90
2017-04-02T07:57:09.376Z,16.00
2017-04-02T07:58:07.037Z,16.00
2017-04-02T07:59:05.176Z,15.90
2017-04-02T08:00:02.935Z,15.90
2017-04-02T08:01:01.203Z,15.90
2017-04-02T08:01:58.875Z,15.90
2017-04-02T08:02:57.557Z,16.00
2017-04-02T08:03:55.201Z,16.10
2017-04-02T08:04:52.841Z,16.10
2017-04-02T08:05:51.080Z,16.10
2017-04-02T08:06:49.311Z,16.20
2017-04-02T08:07:46.931Z,16.20
2017-04-02T08:08:44.608Z,16.20
2017-04-02T08:09:42.235Z,16.20
2017-04-02T08:10:40.575Z,16.20
2017-04-02T08:11:38.859Z,16.20
2017-04-02T08:12:36.588Z,16.10
2017-04-02T08:13:34.347Z,16.10
2017-04-02T08:14:32.057Z,16.20
2017-04-02T08:15:29.911Z,16.30
2017-04-02T08:16:27.559Z,16.40
2017-04-02T08:17:25.438Z,16.40
2017-04-02T08:18:23.130Z,16.40
2017-04-02T08:19:20.754Z,16.50
2017-04-02T08:20:18.483Z,16.50
2017-04-02T08:21:16.180Z,16.60
2017-04-02T08:22:13.821Z,16.60
2017-04-02T08:23:12.454Z,16.70
2017-04-02T08:24:10.132Z,16.70
2017-04-02T08:25:07.937Z,16.60
2017-04-02T08:26:06.472Z,16.70
2017-04-02T08:27:04.255Z,16.70
2017-04-02T08:28:01.916Z,16.80
2017-04-02T08:28:59.587Z,16.90
2017-04-02T08:29:57.247Z,17.00
2017-04-02T08:30:55.345Z,17.10
2017-04-02T08:31:55.820Z,17.10
2017-04-02T08:32:54.452Z,17.20
2017-04-02T08:33:52.800Z,17.30
2017-04-02T08:34:50.451Z,17.30
2017-04-02T08:35:48.170Z,17.40
2017-04-02T08:37:08.151Z,17.40
2017-04-02T08:38:06.805Z,17.30
2017-04-02T08:39:05.132Z,17.30
2017-04-02T08:40:03.137Z,17.50
2017-04-02T08:41:00.804Z,17.60
2017-04-02T08:41:58.475Z,17.60
2017-04-02T08:42:56.103Z,17.80
2017-04-02T08:43:53.723Z,17.90
2017-04-02T08:44:51.380Z,18.00
2017-04-02T08:45:49.507Z,18.10
2017-04-02T08:46:47.852Z,18.10
2017-04-02T08:47:46.414Z,18.20
2017-04-02T08:48:45.066Z,18.40
2017-04-02T08:49:42.696Z,18.50
2017-04-02T08:50:40.412Z,18.60
2017-04-02T08:51:38.125Z,18.50
2017-04-02T08:52:35.793Z,18.50
2017-04-02T08:53:33.513Z,18.50
2017-04-02T08:54:31.217Z,18.50
2017-04-02T08:55:28.893Z,18.50
2017-04-02T08:56:27.088Z,18.50
2017-04-02T08:57:25.023Z,18.50
2017-04-02T08:58:23.728Z,18.60
2017-04-02T08:59:21.659Z,18.70
2017-04-02T09:00:19.456Z,18.70
2017-04-02T09:01:17.178Z,18.70
2017-04-02T09:02:14.870Z,18.70
2017-04-02T09:03:12.935Z,18.50
2017-04-02T09:04:10.555Z,18.50
2017-04-02T09:05:08.270Z,18.50
2017-04-02T09:06:05.965Z,18.50
2017-04-02T09:07:03.638Z,18.60
2017-04-02T09:08:01.282Z,18.50
2017-04-02T09:08:59.290Z,18.40
2017-04-02T09:09:56.915Z,18.50
2017-04-02T09:10:54.643Z,18.50
2017-04-02T09:11:52.327Z,18.50
2017-04-02T09:12:49.967Z,18.60
2017-04-02T09:13:47.635Z,18.50
2017-04-02T09:14:45.314Z,18.30
2017-04-02T09:15:43.359Z,18.30
2017-04-02T09:16:41.023Z,18.40
2017-04-02T09:17:38.648Z,18.40
2017-04-02T09:18:37.180Z,18.50
2017-04-02T09:19:34.826Z,18.50
2017-04-02T09:20:32.555Z,18.50
2017-04-02T09:21:30.572Z,18.70
2017-04-02T09:22:28.247Z,18.70
2017-04-02T09:23:25.907Z,18.70
2017-04-02T09:24:23.550Z,18.80
2017-04-02T09:25:21.337Z,18.80
2017-04-02T09:26:18.981Z,18.90
2017-04-02T09:27:16.690Z,19.00
2017-04-02T09:28:14.380Z,19.10
2017-04-02T09:29:12.044Z,19.10
2017-04-02T09:30:10.099Z,19.20
2017-04-02T09:31:07.722Z,19.30
2017-04-02T09:32:05.447Z,19.40
2017-04-02T09:33:03.097Z,19.30
2017-04-02T09:34:00.718Z,19.40
2017-04-02T09:34:58.350Z,19.40
2017-04-02T09:35:56.399Z,19.50
2017-04-02T09:36:54.096Z,19.50
2017-04-02T09:37:51.699Z,19.70
2017-04-02T09:38:49.353Z,19.70
2017-04-02T09:39:47.039Z,19.70
2017-04-02T09:40:44.769Z,19.80
2017-04-02T09:41:42.710Z,19.80
2017-04-02T09:42:40.350Z,19.90
2017-04-02T09:43:38.030Z,19.90
2017-04-02T09:44:37.603Z,19.80
2017-04-02T09:45:35.992Z,19.80
2017-04-02T09:46:33.658Z,19.70
2017-04-02T09:47:31.315Z,19.60
2017-04-02T09:48:29.003Z,19.70
2017-04-02T09:49:27.206Z,19.60
2017-04-02T09:50:24.871Z,19.70
2017-04-02T09:51:22.534Z,19.70
2017-04-02T09:52:20.205Z,19.70
2017-04-02T09:53:17.885Z,19.80
2017-04-02T09:54:15.587Z,19.80
2017-04-02T09:55:13.290Z,19.80
2017-04-02T09:56:10.974Z,19.90
2017-04-02T09:57:08.599Z,19.90
2017-04-02T09:58:06.327Z,19.90
2017-04-02T09:59:04.065Z,19.90
2017-04-02T10:00:01.714Z,19.90
2017-04-02T10:01:00.299Z,19.90
2017-04-02T10:01:57.967Z,19.90
2017-04-02T10:02:55.678Z,20.00
2017-04-02T10:03:53.359Z,20.00
2017-04-02T10:04:51.463Z,20.00
2017-04-02T10:05:49.136Z,19.90
2017-04-02T10:06:46.824Z,19.90
2017-04-02T10:07:44.546Z,19.90
2017-04-02T10:08:42.813Z,20.00
2017-04-02T10:09:40.480Z,20.00
2017-04-02T10:10:38.488Z,20.00
2017-04-02T10:11:36.940Z,20.10
2017-04-02T10:12:34.641Z,20.00
2017-04-02T10:13:33.243Z,20.00
2017-04-02T10:14:30.907Z,20.10
2017-04-02T10:15:29.213Z,20.20
2017-04-02T10:16:27.246Z,20.30
2017-04-02T10:17:24.887Z,20.40
2017-04-02T10:18:22.534Z,20.50
2017-04-02T10:19:20.232Z,20.40
2017-04-02T10:20:24.716Z,20.50
2017-04-02T10:21:22.363Z,20.60
2017-04-02T10:22:20.059Z,20.50
2017-04-02T10:23:17.738Z,20.50
2017-04-02T10:24:16.286Z,20.50
2017-04-02T10:25:14.053Z,20.50
2017-04-02T10:26:11.694Z,20.50
2017-04-02T10:27:09.316Z,20.60
2017-04-02T10:28:07.063Z,20.60
2017-04-02T10:29:05.085Z,20.60
2017-04-02T10:30:03.346Z,20.70
2017-04-02T10:31:01.057Z,20.90
2017-04-02T10:31:58.715Z,20.90
2017-04-02T10:32:56.346Z,20.90
2017-04-02T10:33:54.329Z,21.00
2017-04-02T10:34:51.974Z,21.10
2017-04-02T10:35:49.697Z,21.20
2017-04-02T10:36:47.666Z,21.40
2017-04-02T10:37:45.367Z,21.60
2017-04-02T10:38:43.634Z,21.70
2017-04-02T10:39:41.379Z,21.80
2017-04-02T10:40:39.075Z,21.90
2017-04-02T10:41:36.734Z,21.90
2017-04-02T10:42:34.354Z,21.80
2017-04-02T10:43:32.028Z,21.90
2017-04-02T10:44:29.689Z,21.90
2017-04-02T10:45:27.675Z,22.00
2017-04-02T10:46:25.378Z,22.20
2017-04-02T10:47:23.360Z,22.30
2017-04-02T10:48:21.864Z,22.30
2017-04-02T10:49:19.522Z,22.20
2017-04-02T10:50:17.784Z,21.90
2017-04-02T10:51:15.432Z,21.60
2017-04-02T10:52:13.079Z,21.30
2017-04-02T10:53:10.748Z,21.00
2017-04-02T10:54:08.411Z,20.90
2017-04-02T10:55:06.268Z,20.80
2017-04-02T10:56:03.958Z,20.80
2017-04-02T10:57:01.618Z,20.70
2017-04-02T10:57:59.272Z,20.70
2017-04-02T10:58:57.458Z,20.70
2017-04-02T10:59:55.783Z,20.80
2017-04-02T11:00:53.887Z,20.70
2017-04-02T11:01:51.561Z,20.70
2017-04-02T11:02:49.202Z,20.80
2017-04-02T11:03:46.882Z,20.90
2017-04-02T11:04:44.577Z,21.00
2017-04-02T11:05:42.334Z,21.30
2017-04-02T11:06:40.067Z,21.70
2017-04-02T11:07:37.719Z,22.20
2017-04-02T11:08:35.420Z,22.70
2017-04-02T11:09:33.092Z,23.10
2017-04-02T11:10:30.753Z,23.50
2017-04-02T11:11:28.422Z,23.60
2017-04-02T11:12:26.523Z,23.90
2017-04-02T11:13:24.182Z,24.20
2017-04-02T11:14:21.823Z,24.60
2017-04-02T11:15:20.594Z,25.10
2017-04-02T11:16:18.968Z,25.50
2017-04-02T11:17:16.616Z,26.00
2017-04-02T11:18:14.807Z,26.30
2017-04-02T11:19:12.451Z,26.50
2017-04-02T11:20:11.146Z,26.70
2017-04-02T11:21:08.909Z,27.30
2017-04-02T11:22:06.567Z,27.80
2017-04-02T11:23:04.194Z,27.70
2017-04-02T11:24:04.297Z,27.70
2017-04-02T11:25:02.356Z,28.00
2017-04-02T11:26:00.023Z,28.40
2017-04-02T11:26:58.245Z,28.80
2017-04-02T11:27:55.928Z,29.10
2017-04-02T11:28:53.559Z,28.80
2017-04-02T11:29:51.222Z,28.40
2017-04-02T11:30:49.392Z,27.90
2017-04-02T11:31:47.073Z,27.90
2017-04-02T11:32:44.731Z,27.60
2017-04-02T11:33:42.334Z,27.40
2017-04-02T11:34:39.999Z,27.30
2017-04-02T11:35:37.697Z,27.10
2017-04-02T11:36:36.520Z,26.90
2017-04-02T11:37:34.202Z,26.30
2017-04-02T11:38:31.850Z,25.90
2017-04-02T11:39:29.524Z,25.60
2017-04-02T11:40:27.239Z,25.20
2017-04-02T11:41:25.602Z,24.80
2017-04-02T11:42:23.550Z,24.60
2017-04-02T11:43:21.252Z,24.10
2017-04-02T11:44:19.959Z,23.60
2017-04-02T11:45:18.157Z,23.50
2017-04-02T11:46:15.879Z,23.90
2017-04-02T11:47:13.501Z,24.60
2017-04-02T11:48:11.827Z,25.40
2017-04-02T11:49:09.562Z,25.80
2017-04-02T11:50:08.343Z,26.10
2017-04-02T11:51:06.123Z,27.00
2017-04-02T11:52:04.779Z,28.00
2017-04-02T11:53:02.430Z,28.80
2017-04-02T11:54:00.855Z,28.90
2017-04-02T11:54:59.548Z,29.10
2017-04-02T11:55:57.420Z,29.00
2017-04-02T11:56:55.179Z,28.80
2017-04-02T11:57:52.809Z,28.60
2017-04-02T11:58:50.499Z,28.30
2017-04-02T11:59:48.693Z,28.10
2017-04-02T12:00:46.799Z,27.90
2017-04-02T12:01:44.508Z,28.30
2017-04-02T12:02:42.130Z,28.90
2017-04-02T12:03:39.790Z,29.60
2017-04-02T12:04:37.433Z,30.50
2017-04-02T12:05:35.071Z,31.40
2017-04-02T12:06:33.226Z,32.30
2017-04-02T12:07:30.866Z,32.90
2017-04-02T12:08:28.547Z,33.10
2017-04-02T12:09:26.227Z,33.20
2017-04-02T12:10:24.398Z,33.10
2017-04-02T12:11:22.105Z,33.20
2017-04-02T12:12:19.819Z,33.10
2017-04-02T12:13:17.595Z,33.10
2017-04-02T12:14:15.246Z,33.50
2017-04-02T12:15:13.002Z,33.80
2017-04-02T12:16:10.667Z,34.20
2017-04-02T12:17:08.376Z,34.20
2017-04-02T12:18:06.599Z,34.00
2017-04-02T12:19:04.239Z,33.40
2017-04-02T12:20:03.222Z,32.90
2017-04-02T12:21:00.887Z,32.50
2017-04-02T12:21:58.687Z,32.20
2017-04-02T12:22:56.357Z,32.00
2017-04-02T12:23:54.681Z,31.80
2017-04-02T12:24:52.357Z,31.40
2017-04-02T12:25:50.703Z,31.00
2017-04-02T12:26:48.479Z,30.10
2017-04-02T12:27:46.143Z,29.10
2017-04-02T12:28:43.835Z,28.50
2017-04-02T12:29:41.499Z,28.20